| Time | Avg. Air Temp | Dew Point | Avg. Rel Humidity | Avg. 2 Min Wind Speed | Max Gust Velocity | MGV Time | MGV Direction | Avg. Spot Wind Velocity |
|---|---|---|---|---|---|---|---|---|
| 2026-09-03 17:35:00 | 2° C | 2° C | 100% | 5 km/h | 9 km/h | 17:31:00 | SE | 5 km/h |
| 16:35:00 | 2° C | 2° C | 100% | 9 km/h | 15 km/h | 16:35:00 | S | 10 km/h |
| 15:35:00 | 1° C | 2° C | 100% | 13 km/h | 20 km/h | 15:31:00 | S | 13 km/h |
| 14:35:00 | 1° C | 1° C | 100% | 9 km/h | 15 km/h | 14:31:00 | SE | 11 km/h |
| 13:35:00 | 1° C | 1° C | 100% | 13 km/h | 17 km/h | 13:35:00 | S | 12 km/h |
| 12:35:00 | 1° C | 1° C | 100% | 14 km/h | 16 km/h | 12:35:00 | S | 13 km/h |
| 11:35:00 | 1° C | 1° C | 100% | 18 km/h | 24 km/h | 11:35:00 | S | 18 km/h |
| 10:35:00 | 2° C | 3° C | 100% | 6 km/h | 11 km/h | 10:35:00 | S | 5 km/h |
| 09:35:00 | 2° C | 2° C | 100% | 13 km/h | 19 km/h | 09:31:00 | S | 13 km/h |
| 08:35:00 | 3° C | 3° C | 100% | 1 km/h | 3 km/h | 08:35:00 | SE | 1 km/h |
| 07:35:00 | 3° C | 3° C | 100% | 5 km/h | 7 km/h | 07:31:00 | S | 5 km/h |
| 06:35:00 | 3° C | 3° C | 100% | 6 km/h | 8 km/h | 06:32:00 | S | 5 km/h |
| 05:35:00 | 3° C | 3° C | 100% | 9 km/h | 13 km/h | 05:33:00 | SE | 10 km/h |
| 04:35:00 | 4° C | 2° C | 88% | 22 km/h | 28 km/h | 04:35:00 | SE | 21 km/h |
| 03:35:00 | 4° C | 3° C | 92% | 17 km/h | 22 km/h | 03:31:00 | SE | 19 km/h |
| 02:35:00 | 4° C | 2° C | 92% | 10 km/h | 13 km/h | 02:33:00 | E | 10 km/h |
| 01:35:00 | 4° C | 3° C | 96% | 17 km/h | 19 km/h | 01:34:00 | SE | 16 km/h |
| 00:35:00 | 3° C | 3° C | 100% | 10 km/h | 14 km/h | 00:31:00 | SE | 10 km/h |
| 23:35:00 | 4° C | 3° C | 96% | 19 km/h | 25 km/h | 23:35:00 | S | 16 km/h |
| 22:35:00 | 4° C | 4° C | 100% | 27 km/h | 34 km/h | 22:34:00 | SE | 27 km/h |
| 21:35:00 | 4° C | 5° C | 100% | 22 km/h | 29 km/h | 21:35:00 | SE | 21 km/h |
| 20:35:00 | 4° C | 5° C | 100% | 26 km/h | 35 km/h | 20:33:00 | S | 28 km/h |
| 19:35:00 | 5° C | 5° C | 100% | 33 km/h | 39 km/h | 19:34:00 | SE | 32 km/h |
| 18:35:00 | 6° C | 4° C | 89% | 19 km/h | 25 km/h | 18:32:00 | E | 21 km/h |
Subpeak Weather
| Time | Avg. Air Temp | Dew Point | Avg. Rel Humidity | Avg. 2 Min Wind Speed | Max Gust Velocity | MGV Time | MGV Direction | Avg. Spot Wind Velocity |
|---|---|---|---|---|---|---|---|---|
| 2026-09-03 17:35:00 | 2° C | 2° C | 100% | 5 km/h | 9 km/h | 17:31:00 | SE | 5 km/h |
| 17:30:00 | 2° C | 2° C | 100% | 5 km/h | 9 km/h | 17:26:00 | S | 7 km/h |
| 17:25:00 | 2° C | 2° C | 100% | 2 km/h | 9 km/h | 17:22:00 | S | 5 km/h |
| 17:20:00 | 2° C | 2° C | 100% | 4 km/h | 8 km/h | 17:17:00 | SE | 5 km/h |
| 17:15:00 | 2° C | 2° C | 100% | 4 km/h | 7 km/h | 17:12:00 | SE | 5 km/h |
| 17:10:00 | 2° C | 2° C | 100% | 5 km/h | 8 km/h | 17:10:00 | SE | 5 km/h |
| 17:05:00 | 1° C | 2° C | 100% | 4 km/h | 6 km/h | 17:05:00 | SE | 3 km/h |
| 17:00:00 | 1° C | 1° C | 100% | 4 km/h | 10 km/h | 16:56:00 | S | 6 km/h |
| 16:55:00 | 1° C | 1° C | 100% | 7 km/h | 13 km/h | 16:51:00 | SE | 9 km/h |
| 16:50:00 | 1° C | 1° C | 100% | 8 km/h | 15 km/h | 16:47:00 | S | 10 km/h |
| 16:45:00 | 2° C | 1° C | 100% | 12 km/h | 16 km/h | 16:45:00 | S | 13 km/h |
| 16:40:00 | 2° C | 2° C | 100% | 9 km/h | 13 km/h | 16:36:00 | S | 8 km/h |
| 16:35:00 | 2° C | 2° C | 100% | 9 km/h | 15 km/h | 16:35:00 | S | 10 km/h |




